createdAt,value
2018-09-27T00:00:26.557Z,36.97
2018-09-27T00:01:05.158Z,38.90
2018-09-27T00:01:43.837Z,39.40
2018-09-27T00:02:22.481Z,40.60
2018-09-27T00:03:01.287Z,39.17
2018-09-27T00:03:39.932Z,37.73
2018-09-27T00:04:19.447Z,38.00
2018-09-27T00:04:58.161Z,37.50
2018-09-27T00:05:36.958Z,38.20
2018-09-27T00:06:16.254Z,36.47
2018-09-27T00:06:55.791Z,37.47
2018-09-27T00:07:34.425Z,38.37
2018-09-27T00:08:13.124Z,37.87
2018-09-27T00:08:51.799Z,39.77
2018-09-27T00:09:30.618Z,42.47
2018-09-27T00:10:09.260Z,42.17
2018-09-27T00:10:48.094Z,39.57
2018-09-27T00:11:26.654Z,43.53
2018-09-27T00:12:05.143Z,43.77
2018-09-27T00:12:43.907Z,44.90
2018-09-27T00:13:22.856Z,43.10
2018-09-27T00:14:01.486Z,44.37
2018-09-27T00:14:40.241Z,43.17
2018-09-27T00:15:18.983Z,45.47
2018-09-27T00:15:57.901Z,45.83
2018-09-27T00:16:36.623Z,45.90
2018-09-27T00:17:15.336Z,47.00
2018-09-27T00:17:54.005Z,46.77
2018-09-27T00:18:32.387Z,45.03
2018-09-27T00:19:10.930Z,46.57
2018-09-27T00:19:49.804Z,45.23
2018-09-27T00:20:28.119Z,47.00
2018-09-27T00:21:06.477Z,47.37
2018-09-27T00:21:45.033Z,48.20
2018-09-27T00:22:23.230Z,49.50
2018-09-27T00:23:01.505Z,49.27
2018-09-27T00:23:40.584Z,51.17
2018-09-27T00:24:18.929Z,49.33
2018-09-27T00:24:56.857Z,49.00
2018-09-27T00:25:36.437Z,49.00
2018-09-27T00:26:15.244Z,49.63
2018-09-27T00:26:53.183Z,50.13
2018-09-27T00:27:31.373Z,50.17
2018-09-27T00:28:09.425Z,48.77
2018-09-27T00:28:47.357Z,49.77
2018-09-27T00:29:25.759Z,48.90
2018-09-27T00:30:03.678Z,47.00
2018-09-27T00:30:41.591Z,46.17
2018-09-27T00:31:19.785Z,49.10
2018-09-27T00:31:57.694Z,49.17
2018-09-27T00:32:35.520Z,49.20
2018-09-27T00:33:13.533Z,48.20
2018-09-27T00:33:51.438Z,47.50
2018-09-27T00:34:29.294Z,48.53
2018-09-27T00:35:07.369Z,46.77
2018-09-27T00:35:45.229Z,47.70
2018-09-27T00:36:23.977Z,46.80
2018-09-27T00:37:02.101Z,50.10
2018-09-27T00:37:40.074Z,51.00
2018-09-27T00:38:17.947Z,50.10
2018-09-27T00:38:55.853Z,49.90
2018-09-27T00:39:33.675Z,47.83
2018-09-27T00:40:11.658Z,49.67
2018-09-27T00:40:49.750Z,49.13
2018-09-27T00:41:27.780Z,47.20
2018-09-27T00:42:05.686Z,46.17
2018-09-27T00:42:43.615Z,47.10
2018-09-27T00:43:21.695Z,49.30
2018-09-27T00:43:59.435Z,46.57
2018-09-27T00:44:37.293Z,48.50
2018-09-27T00:45:16.473Z,49.23
2018-09-27T00:45:54.345Z,48.27
2018-09-27T00:46:32.146Z,44.90
2018-09-27T00:47:09.955Z,49.40
2018-09-27T00:47:48.040Z,50.57
2018-09-27T00:48:26.075Z,47.87
2018-09-27T00:49:03.904Z,47.63
2018-09-27T00:49:42.002Z,48.47
2018-09-27T00:50:19.827Z,48.37
2018-09-27T00:50:57.605Z,50.43
2018-09-27T00:51:35.620Z,49.90
2018-09-27T00:52:13.758Z,51.30
2018-09-27T00:52:52.422Z,50.80
2018-09-27T00:53:30.243Z,50.00
2018-09-27T00:54:08.042Z,46.30
2018-09-27T00:54:45.912Z,47.73
2018-09-27T00:55:24.891Z,46.90
2018-09-27T00:56:02.647Z,46.03
2018-09-27T00:56:40.618Z,47.73
2018-09-27T00:57:18.430Z,48.27
2018-09-27T00:57:57.702Z,45.77
2018-09-27T00:58:35.580Z,47.40
2018-09-27T00:59:14.319Z,49.30
2018-09-27T00:59:52.489Z,50.67
2018-09-27T01:00:30.421Z,48.90
2018-09-27T01:01:08.454Z,49.43
2018-09-27T01:01:46.244Z,49.90
2018-09-27T01:02:24.103Z,48.77
2018-09-27T01:03:01.997Z,48.27
2018-09-27T01:03:39.844Z,47.23
2018-09-27T01:04:18.740Z,47.90
2018-09-27T01:04:56.524Z,48.17
2018-09-27T01:05:34.406Z,47.30
2018-09-27T01:06:12.492Z,46.20
2018-09-27T01:06:50.286Z,44.37
2018-09-27T01:07:28.122Z,44.87
2018-09-27T01:08:06.152Z,44.97
2018-09-27T01:08:44.001Z,44.60
2018-09-27T01:09:22.741Z,44.60
2018-09-27T01:10:00.944Z,43.83
2018-09-27T01:10:38.805Z,47.20
2018-09-27T01:11:16.761Z,44.80
2018-09-27T01:11:54.676Z,45.20
2018-09-27T01:12:32.433Z,44.57
2018-09-27T01:13:10.249Z,45.70
2018-09-27T01:13:48.229Z,45.90
2018-09-27T01:14:26.276Z,44.43
2018-09-27T01:15:04.478Z,44.70
2018-09-27T01:15:43.471Z,46.17
2018-09-27T01:16:21.286Z,44.50
2018-09-27T01:17:00.089Z,42.57
2018-09-27T01:17:37.905Z,45.90
2018-09-27T01:18:17.802Z,42.90
2018-09-27T01:18:55.787Z,43.23
2018-09-27T01:19:33.686Z,42.50
2018-09-27T01:20:11.577Z,41.20
2018-09-27T01:20:49.435Z,41.97
2018-09-27T01:21:27.494Z,41.67
2018-09-27T01:22:05.311Z,40.83
2018-09-27T01:22:44.424Z,41.70
2018-09-27T01:23:22.280Z,43.10
2018-09-27T01:24:00.127Z,42.80
2018-09-27T01:24:38.047Z,42.13
2018-09-27T01:25:16.122Z,42.87
2018-09-27T01:25:53.911Z,41.77
2018-09-27T01:26:31.686Z,41.17
2018-09-27T01:27:09.509Z,40.90
2018-09-27T01:27:48.497Z,41.53
2018-09-27T01:28:27.485Z,43.97
2018-09-27T01:29:05.325Z,43.93
2018-09-27T01:29:43.177Z,43.60
2018-09-27T01:30:21.254Z,41.77
2018-09-27T01:31:00.098Z,42.57
2018-09-27T01:31:38.019Z,40.47
2018-09-27T01:32:17.689Z,38.63
2018-09-27T01:32:55.585Z,39.60
2018-09-27T01:33:34.469Z,40.80
2018-09-27T01:34:12.290Z,41.53
2018-09-27T01:34:50.363Z,41.17
2018-09-27T01:35:28.312Z,41.73
2018-09-27T01:36:06.381Z,43.00
2018-09-27T01:36:44.689Z,39.23
2018-09-27T01:37:22.740Z,41.17
2018-09-27T01:38:00.673Z,40.57
2018-09-27T01:38:38.648Z,40.43
2018-09-27T01:39:16.468Z,41.43
2018-09-27T01:39:54.415Z,40.60
2018-09-27T01:40:32.278Z,39.73
2018-09-27T01:41:10.794Z,41.20
2018-09-27T01:41:48.801Z,39.33
2018-09-27T01:42:26.881Z,38.67
2018-09-27T01:43:04.733Z,39.33
2018-09-27T01:43:42.541Z,40.83
2018-09-27T01:44:20.437Z,40.90
2018-09-27T01:44:58.528Z,39.50
2018-09-27T01:45:36.337Z,41.00
2018-09-27T01:46:14.223Z,39.73
2018-09-27T01:46:52.192Z,40.60
2018-09-27T01:47:30.995Z,39.03
2018-09-27T01:48:08.806Z,39.30
2018-09-27T01:48:46.957Z,38.57
2018-09-27T01:49:25.733Z,41.20
2018-09-27T01:50:03.795Z,39.70
2018-09-27T01:50:41.865Z,38.20
2018-09-27T01:51:19.817Z,39.93
2018-09-27T01:51:57.815Z,39.97
2018-09-27T01:52:35.685Z,40.40
2018-09-27T01:53:13.733Z,40.40
2018-09-27T01:53:51.941Z,39.37
2018-09-27T01:54:29.820Z,38.07
2018-09-27T01:55:07.627Z,39.40
2018-09-27T01:55:45.457Z,39.07
2018-09-27T01:56:23.525Z,39.23
2018-09-27T01:57:01.466Z,39.13
2018-09-27T01:57:39.299Z,39.27
2018-09-27T01:58:17.932Z,39.27
2018-09-27T01:58:55.778Z,40.67
2018-09-27T01:59:34.416Z,40.07
2018-09-27T02:00:12.461Z,42.07
2018-09-27T02:00:50.342Z,40.87
2018-09-27T02:01:29.626Z,40.70
2018-09-27T02:02:07.687Z,40.27
2018-09-27T02:02:45.575Z,39.40
2018-09-27T02:03:23.540Z,41.13
2018-09-27T02:04:01.420Z,38.63
2018-09-27T02:04:39.229Z,40.67
2018-09-27T02:05:17.078Z,38.53
2018-09-27T02:05:55.160Z,37.80
2018-09-27T02:06:34.109Z,40.80
2018-09-27T02:07:12.093Z,38.67
2018-09-27T02:07:49.944Z,37.73
2018-09-27T02:08:27.855Z,40.67
2018-09-27T02:09:07.614Z,38.60
2018-09-27T02:09:45.689Z,39.60
2018-09-27T02:10:23.665Z,38.10
2018-09-27T02:11:01.484Z,37.83
2018-09-27T02:11:39.726Z,39.70
2018-09-27T02:12:17.597Z,39.60
2018-09-27T02:12:55.478Z,41.20
2018-09-27T02:13:35.080Z,39.83
2018-09-27T02:14:14.022Z,39.30
2018-09-27T02:14:51.900Z,40.47
2018-09-27T02:15:29.765Z,40.60
2018-09-27T02:16:07.838Z,39.90
2018-09-27T02:16:45.706Z,39.50
2018-09-27T02:17:24.819Z,39.57
2018-09-27T02:18:02.669Z,38.87
2018-09-27T02:18:40.545Z,35.60
2018-09-27T02:19:18.465Z,36.73
2018-09-27T02:19:56.537Z,36.23
2018-09-27T02:20:34.406Z,35.53
2018-09-27T02:21:12.398Z,36.77
2018-09-27T02:21:50.517Z,34.97
2018-09-27T02:22:28.424Z,34.57
2018-09-27T02:23:06.424Z,36.60
2018-09-27T02:23:44.292Z,36.57
2018-09-27T02:24:22.334Z,35.03
2018-09-27T02:25:00.215Z,34.70
2018-09-27T02:25:38.062Z,33.70
2018-09-27T02:26:16.680Z,35.00
2018-09-27T02:26:54.650Z,35.83
2018-09-27T02:27:32.525Z,35.43
2018-09-27T02:28:10.613Z,33.87
2018-09-27T02:28:48.483Z,33.80
2018-09-27T02:29:26.629Z,33.80
2018-09-27T02:30:04.569Z,35.70
2018-09-27T02:30:42.542Z,34.50
2018-09-27T02:31:20.472Z,34.73
2018-09-27T02:31:58.472Z,34.37
2018-09-27T02:32:36.507Z,33.97
2018-09-27T02:33:14.370Z,33.97
2018-09-27T02:33:52.171Z,34.73
2018-09-27T02:34:30.025Z,34.77
2018-09-27T02:35:07.880Z,32.97
2018-09-27T02:35:45.668Z,35.10
2018-09-27T02:36:23.591Z,33.20
2018-09-27T02:37:01.501Z,35.30
2018-09-27T02:37:40.605Z,33.87
2018-09-27T02:38:19.752Z,34.73
2018-09-27T02:38:57.786Z,33.67
2018-09-27T02:39:36.569Z,39.13
2018-09-27T02:40:14.396Z,37.43
2018-09-27T02:40:52.272Z,36.40
2018-09-27T02:41:30.077Z,36.97
2018-09-27T02:42:08.939Z,36.60
2018-09-27T02:42:46.786Z,37.87
2018-09-27T02:43:29.342Z,38.57
2018-09-27T02:44:07.321Z,36.47
2018-09-27T02:44:45.322Z,36.77
2018-09-27T02:45:23.392Z,36.03
2018-09-27T02:46:01.248Z,35.50
2018-09-27T02:46:39.200Z,35.77
2018-09-27T02:47:18.732Z,36.30
2018-09-27T02:47:56.672Z,36.53
2018-09-27T02:48:34.683Z,38.67
2018-09-27T02:49:12.581Z,35.97
2018-09-27T02:49:53.932Z,34.90
2018-09-27T02:50:32.109Z,36.90
2018-09-27T02:51:09.964Z,35.70
2018-09-27T02:51:47.876Z,34.80
2018-09-27T02:52:26.947Z,34.50
2018-09-27T02:53:04.909Z,34.70
2018-09-27T02:53:43.933Z,35.30
2018-09-27T02:54:21.681Z,35.77
2018-09-27T02:54:59.535Z,34.67
2018-09-27T02:55:37.424Z,34.83
2018-09-27T02:56:15.846Z,34.67
2018-09-27T02:56:53.672Z,33.20
2018-09-27T02:57:31.697Z,34.40
2018-09-27T02:58:10.464Z,33.97
2018-09-27T02:58:48.251Z,33.03
2018-09-27T02:59:26.082Z,34.97
2018-09-27T03:00:04.875Z,33.67
2018-09-27T03:00:43.756Z,32.77
2018-09-27T03:01:21.875Z,31.87
2018-09-27T03:01:59.766Z,32.77
2018-09-27T03:02:37.736Z,30.90
2018-09-27T03:03:18.294Z,32.63
2018-09-27T03:03:57.915Z,32.47
2018-09-27T03:04:35.887Z,31.17
2018-09-27T03:05:14.670Z,31.70
2018-09-27T03:05:52.800Z,32.80
2018-09-27T03:06:31.026Z,31.10
2018-09-27T03:07:08.946Z,33.50
2018-09-27T03:07:47.929Z,32.47
2018-09-27T03:08:25.808Z,31.13
2018-09-27T03:09:04.544Z,31.47
2018-09-27T03:09:43.258Z,31.70
2018-09-27T03:10:21.162Z,31.97
2018-09-27T03:10:58.954Z,30.70
2018-09-27T03:11:36.727Z,32.30
2018-09-27T03:12:14.660Z,30.10
2018-09-27T03:12:52.666Z,30.67
2018-09-27T03:13:30.566Z,31.07
2018-09-27T03:14:08.864Z,30.10
2018-09-27T03:14:46.934Z,32.60
2018-09-27T03:15:24.779Z,32.27
2018-09-27T03:16:02.938Z,30.33
2018-09-27T03:16:40.726Z,30.70
2018-09-27T03:17:18.698Z,30.00
2018-09-27T03:17:56.482Z,30.90
2018-09-27T03:18:34.266Z,32.23
2018-09-27T03:19:12.192Z,31.73
2018-09-27T03:19:50.513Z,31.40
2018-09-27T03:20:28.455Z,30.77
2018-09-27T03:21:06.397Z,31.10
2018-09-27T03:21:44.651Z,29.50
2018-09-27T03:22:22.423Z,29.43
2018-09-27T03:23:00.224Z,28.17
2018-09-27T03:23:38.360Z,31.83
2018-09-27T03:24:16.604Z,28.60
2018-09-27T03:24:54.401Z,29.43
2018-09-27T03:25:32.274Z,29.20
2018-09-27T03:26:10.405Z,30.03
2018-09-27T03:26:48.187Z,28.00
2018-09-27T03:27:26.107Z,27.60
2018-09-27T03:28:04.856Z,28.60
2018-09-27T03:28:42.671Z,30.10
2018-09-27T03:29:20.480Z,29.13
2018-09-27T03:29:58.265Z,30.17
2018-09-27T03:30:36.091Z,29.83
2018-09-27T03:31:15.028Z,29.00
2018-09-27T03:31:53.009Z,29.77
2018-09-27T03:32:30.941Z,29.17
2018-09-27T03:33:09.103Z,28.30
2018-09-27T03:33:48.414Z,29.30
2018-09-27T03:34:26.270Z,27.93
2018-09-27T03:35:04.129Z,28.70
2018-09-27T03:35:42.056Z,27.80
2018-09-27T03:36:20.732Z,29.10
2018-09-27T03:36:58.797Z,28.10
2018-09-27T03:37:36.735Z,29.00
2018-09-27T03:38:14.614Z,27.30
2018-09-27T03:38:54.465Z,28.70
2018-09-27T03:39:32.513Z,26.73
2018-09-27T03:40:10.617Z,26.93
2018-09-27T03:40:48.780Z,28.57
2018-09-27T03:41:26.635Z,26.90
2018-09-27T03:42:04.494Z,26.60
2018-09-27T03:42:42.222Z,26.03
2018-09-27T03:43:20.429Z,26.70
2018-09-27T03:43:59.463Z,26.10
2018-09-27T03:44:37.346Z,26.67
2018-09-27T03:45:15.493Z,26.60
2018-09-27T03:45:53.289Z,27.87
2018-09-27T03:46:31.397Z,27.17
2018-09-27T03:47:09.902Z,26.17
2018-09-27T03:47:52.349Z,26.03
2018-09-27T03:48:37.673Z,26.20
2018-09-27T03:49:30.494Z,25.20
2018-09-27T03:50:08.927Z,27.63
2018-09-27T03:50:46.721Z,25.53
2018-09-27T03:51:24.677Z,24.23
2018-09-27T03:52:02.568Z,25.67
2018-09-27T03:52:40.757Z,26.90
2018-09-27T03:53:18.661Z,27.07
2018-09-27T03:53:56.750Z,25.80
2018-09-27T03:54:35.546Z,28.47
2018-09-27T03:55:14.315Z,26.83
2018-09-27T03:55:52.255Z,27.53
2018-09-27T03:56:35.756Z,27.03
2018-09-27T03:59:34.661Z,27.23
2018-09-27T04:00:16.660Z,28.42
2018-09-27T04:00:56.625Z,27.27
2018-09-27T04:01:36.990Z,25.90
2018-09-27T04:02:15.049Z,26.93
2018-09-27T04:02:52.913Z,29.10
2018-09-27T04:03:30.787Z,29.77
2018-09-27T04:04:09.561Z,27.20
2018-09-27T04:04:48.415Z,28.00
2018-09-27T04:05:26.365Z,26.77
2018-09-27T04:06:04.208Z,27.27
2018-09-27T04:06:49.315Z,27.37
2018-09-27T04:07:28.138Z,29.37
2018-09-27T04:08:07.709Z,27.70
2018-09-27T04:08:51.167Z,27.00
2018-09-27T04:09:35.456Z,29.93
2018-09-27T04:10:14.285Z,29.97
2018-09-27T04:10:52.177Z,26.23
2018-09-27T04:11:30.101Z,28.57
2018-09-27T04:12:08.484Z,28.33
2018-09-27T04:12:46.360Z,29.30
2018-09-27T04:13:24.298Z,28.07
2018-09-27T04:14:02.123Z,27.70
2018-09-27T04:14:40.833Z,27.20
2018-09-27T04:15:19.091Z,29.17
2018-09-27T04:15:58.173Z,28.13
2018-09-27T04:16:54.481Z,28.67
2018-09-27T04:17:32.364Z,28.33
2018-09-27T04:18:10.449Z,27.30
2018-09-27T04:18:49.389Z,27.97
2018-09-27T04:19:27.421Z,27.20
2018-09-27T04:20:05.249Z,29.20
2018-09-27T04:20:52.476Z,26.10
2018-09-27T04:21:30.280Z,28.00
2018-09-27T04:22:08.500Z,29.13
2018-09-27T04:22:50.074Z,28.57
2018-09-27T04:23:31.192Z,26.47
2018-09-27T04:24:14.233Z,28.27
2018-09-27T04:25:12.622Z,27.37
2018-09-27T04:26:00.422Z,28.00
2018-09-27T04:26:38.278Z,27.57
2018-09-27T04:27:16.192Z,26.70
2018-09-27T04:27:54.267Z,27.53
2018-09-27T04:28:32.171Z,26.00
2018-09-27T04:29:10.131Z,28.07
2018-09-27T04:29:48.004Z,26.60
2018-09-27T04:30:25.897Z,25.77
2018-09-27T04:31:03.748Z,27.50
2018-09-27T04:31:41.781Z,25.20
2018-09-27T04:32:23.512Z,26.20
2018-09-27T04:33:08.621Z,25.20
2018-09-27T04:33:49.138Z,25.03
2018-09-27T04:34:27.425Z,27.10
2018-09-27T04:35:11.708Z,26.00
2018-09-27T04:35:54.184Z,24.60
2018-09-27T04:36:31.965Z,22.70
2018-09-27T04:37:12.384Z,25.00
2018-09-27T04:38:00.774Z,25.60
2018-09-27T04:38:38.652Z,27.23
2018-09-27T04:39:23.967Z,28.80
2018-09-27T04:40:01.970Z,29.40
2018-09-27T04:40:39.837Z,29.40
2018-09-27T04:41:17.945Z,29.53
2018-09-27T04:41:56.392Z,29.33
2018-09-27T04:42:34.274Z,30.70
2018-09-27T04:43:12.188Z,29.13
2018-09-27T04:43:50.135Z,26.80
2018-09-27T04:44:27.956Z,25.83
2018-09-27T04:45:09.604Z,25.67
2018-09-27T04:45:52.172Z,27.03
2018-09-27T04:46:44.681Z,25.47
2018-09-27T04:47:26.166Z,25.83
2018-09-27T04:48:04.070Z,25.37
2018-09-27T04:48:41.964Z,25.90
2018-09-27T04:49:35.285Z,27.70
2018-09-27T04:50:18.317Z,28.47
2018-09-27T04:50:56.361Z,27.60
2018-09-27T04:51:35.477Z,28.40
2018-09-27T04:52:13.441Z,29.07
2018-09-27T04:52:52.545Z,28.77
2018-09-27T04:53:30.619Z,29.00
2018-09-27T04:54:09.454Z,28.37
2018-09-27T04:54:47.525Z,26.53
2018-09-27T04:55:25.502Z,28.40
2018-09-27T04:56:05.978Z,25.63
2018-09-27T04:56:46.855Z,27.57
2018-09-27T04:57:39.240Z,26.77
2018-09-27T04:58:21.469Z,25.43
2018-09-27T04:58:59.260Z,28.40
2018-09-27T04:59:37.162Z,27.57
2018-09-27T05:03:17.283Z,30.50
2018-09-27T05:03:55.251Z,30.10
2018-09-27T05:04:34.166Z,29.43
2018-09-27T05:05:13.054Z,30.43
2018-09-27T05:05:50.823Z,29.90
2018-09-27T05:06:28.846Z,30.10
2018-09-27T05:07:06.713Z,28.03
2018-09-27T05:07:45.054Z,28.10
2018-09-27T05:08:23.372Z,29.87
2018-09-27T05:09:01.225Z,28.70
2018-09-27T05:09:39.266Z,28.60
2018-09-27T05:10:17.141Z,29.57
2018-09-27T05:10:55.209Z,29.00
2018-09-27T05:11:33.099Z,27.50
2018-09-27T05:12:11.081Z,28.43
2018-09-27T05:12:53.072Z,29.37
2018-09-27T05:13:30.854Z,29.03
2018-09-27T05:14:08.706Z,26.63
2018-09-27T05:14:46.737Z,29.77
2018-09-27T05:15:24.909Z,28.33
2018-09-27T05:16:02.747Z,29.20
2018-09-27T05:16:41.945Z,30.87
2018-09-27T05:17:20.057Z,28.50
2018-09-27T05:17:57.978Z,30.10
2018-09-27T05:18:35.757Z,29.00
2018-09-27T05:19:13.727Z,28.90
2018-09-27T05:19:51.593Z,28.87
2018-09-27T05:20:30.069Z,29.07
2018-09-27T05:21:08.177Z,29.50
2018-09-27T05:21:47.006Z,29.67
2018-09-27T05:22:24.991Z,29.37
2018-09-27T05:23:02.886Z,30.33
2018-09-27T05:23:40.718Z,28.60
2018-09-27T05:24:19.704Z,28.97
2018-09-27T05:24:57.492Z,29.40
2018-09-27T05:25:35.568Z,29.73
2018-09-27T05:26:13.564Z,29.80
2018-09-27T05:26:55.523Z,30.07
2018-09-27T05:27:34.584Z,30.93
2018-09-27T05:28:13.986Z,29.87
2018-09-27T05:28:52.479Z,29.73
2018-09-27T05:29:31.525Z,30.67
2018-09-27T05:30:10.090Z,29.50
2018-09-27T05:30:49.399Z,31.30
2018-09-27T05:31:29.572Z,31.00
2018-09-27T05:32:09.980Z,30.80
2018-09-27T05:32:48.009Z,32.10
2018-09-27T05:33:26.101Z,31.70
2018-09-27T05:34:04.000Z,32.10
2018-09-27T05:34:42.829Z,30.90
2018-09-27T05:35:30.616Z,30.27
2018-09-27T05:36:08.406Z,31.40
2018-09-27T05:36:46.482Z,29.60
2018-09-27T05:37:24.287Z,33.63
2018-09-27T05:38:02.276Z,31.70
2018-09-27T05:38:40.154Z,32.30
2018-09-27T05:39:17.970Z,30.50
2018-09-27T05:39:55.831Z,31.50
2018-09-27T05:40:33.613Z,30.77
2018-09-27T05:41:11.410Z,33.57
2018-09-27T05:41:50.119Z,31.47
2018-09-27T05:42:28.042Z,31.23
2018-09-27T05:43:07.458Z,32.50
2018-09-27T05:43:48.666Z,33.30
2018-09-27T05:44:28.256Z,31.57
2018-09-27T05:45:08.036Z,32.17
2018-09-27T05:45:47.386Z,30.53
2018-09-27T05:46:25.348Z,32.13
2018-09-27T05:47:03.193Z,31.40
2018-09-27T05:47:41.130Z,30.57
2018-09-27T05:48:19.015Z,32.10
2018-09-27T05:48:56.893Z,31.83
2018-09-27T05:49:35.161Z,32.90
2018-09-27T05:50:13.323Z,31.93
2018-09-27T05:50:51.237Z,33.20
2018-09-27T05:51:30.248Z,31.97
2018-09-27T05:52:09.887Z,30.47
2018-09-27T05:52:47.758Z,31.83
2018-09-27T05:53:28.247Z,32.00
2018-09-27T05:54:06.222Z,31.23
2018-09-27T05:54:44.384Z,32.60
2018-09-27T05:55:22.195Z,32.03
2018-09-27T05:56:00.199Z,33.20
2018-09-27T05:56:38.117Z,31.93
2018-09-27T05:57:15.979Z,31.07
2018-09-27T05:57:54.625Z,31.17
2018-09-27T05:58:33.641Z,33.10
2018-09-27T05:59:12.101Z,31.77
2018-09-27T05:59:50.017Z,33.97
2018-09-27T06:00:27.887Z,32.13
2018-09-27T06:01:06.954Z,33.53
2018-09-27T06:01:44.825Z,33.83
2018-09-27T06:02:22.633Z,35.33
2018-09-27T06:03:00.601Z,31.73
2018-09-27T06:03:38.619Z,30.97
2018-09-27T06:04:18.892Z,30.27
2018-09-27T06:04:58.626Z,32.80
2018-09-27T06:05:37.497Z,33.00
2018-09-27T06:06:15.577Z,32.03
2018-09-27T06:06:53.453Z,32.50
2018-09-27T06:07:31.261Z,32.60
2018-09-27T06:08:09.145Z,33.97
2018-09-27T06:08:47.013Z,34.07
2018-09-27T06:09:25.859Z,32.50
2018-09-27T06:10:03.838Z,34.10
2018-09-27T06:10:42.557Z,34.90
2018-09-27T06:11:20.513Z,34.27
2018-09-27T06:11:58.285Z,34.37
2018-09-27T06:12:36.137Z,34.37
2018-09-27T06:13:14.029Z,34.00
2018-09-27T06:13:51.850Z,32.83
2018-09-27T06:14:29.866Z,32.40
2018-09-27T06:15:07.928Z,33.57
2018-09-27T06:15:45.968Z,32.57
2018-09-27T06:16:24.008Z,30.90
2018-09-27T06:17:01.822Z,31.43
2018-09-27T06:17:40.521Z,31.07
2018-09-27T06:18:18.312Z,30.90
2018-09-27T06:18:56.174Z,31.73
2018-09-27T06:19:34.367Z,30.93
2018-09-27T06:20:14.015Z,30.80
2018-09-27T06:20:53.209Z,30.73
2018-09-27T06:21:31.604Z,32.13
2018-09-27T06:22:09.783Z,31.10
2018-09-27T06:22:47.747Z,30.80
2018-09-27T06:23:25.580Z,31.00
2018-09-27T06:24:03.421Z,31.87
2018-09-27T06:24:41.604Z,31.87
2018-09-27T06:25:19.468Z,31.07
2018-09-27T06:25:57.295Z,29.30
2018-09-27T06:26:35.271Z,31.30
2018-09-27T06:27:13.116Z,30.90
2018-09-27T06:27:50.916Z,30.03
2018-09-27T06:28:29.794Z,31.90
2018-09-27T06:29:07.932Z,30.23
2018-09-27T06:29:45.829Z,31.90
2018-09-27T06:30:24.539Z,32.07
2018-09-27T06:31:02.385Z,29.87
2018-09-27T06:31:40.317Z,31.20
2018-09-27T06:32:18.357Z,31.70
2018-09-27T06:32:56.300Z,31.30
2018-09-27T06:33:34.228Z,31.60
2018-09-27T06:34:12.319Z,31.70
2018-09-27T06:34:50.164Z,30.97
2018-09-27T06:35:29.126Z,29.80
2018-09-27T06:36:07.064Z,30.97
2018-09-27T06:36:44.932Z,31.30
2018-09-27T06:37:23.070Z,30.03
2018-09-27T06:38:01.018Z,31.97
2018-09-27T06:38:39.073Z,30.50
2018-09-27T06:39:17.045Z,31.10
2018-09-27T06:39:54.969Z,31.00
2018-09-27T06:40:32.859Z,31.47
2018-09-27T06:41:10.767Z,32.40
2018-09-27T06:41:49.476Z,33.63
2018-09-27T06:42:27.326Z,32.20
2018-09-27T06:43:05.257Z,31.70
2018-09-27T06:43:43.137Z,31.87
2018-09-27T06:44:21.946Z,32.07
2018-09-27T06:45:00.629Z,30.90
2018-09-27T06:45:38.631Z,33.50
2018-09-27T06:46:16.535Z,31.43
2018-09-27T06:46:54.444Z,32.00
2018-09-27T06:47:32.467Z,31.20
2018-09-27T06:48:10.638Z,31.77
2018-09-27T06:48:48.498Z,31.13
2018-09-27T06:49:26.366Z,30.23
2018-09-27T06:50:04.273Z,30.10
2018-09-27T06:50:42.089Z,29.67
2018-09-27T06:51:20.216Z,31.00
2018-09-27T06:51:58.123Z,33.00
2018-09-27T06:52:37.041Z,31.07
2018-09-27T06:53:14.948Z,28.03
2018-09-27T06:53:53.713Z,30.13
2018-09-27T06:54:33.297Z,30.67
2018-09-27T06:55:11.633Z,29.47
2018-09-27T06:55:50.113Z,30.67
2018-09-27T06:56:28.077Z,30.70
2018-09-27T06:57:06.105Z,29.13
2018-09-27T06:57:44.338Z,29.17
2018-09-27T06:58:22.124Z,29.63
2018-09-27T06:59:00.044Z,29.93
2018-09-27T06:59:38.827Z,27.77
2018-09-27T07:00:17.209Z,29.82
2018-09-27T07:00:55.108Z,27.80
2018-09-27T07:01:33.064Z,30.80
2018-09-27T07:02:10.923Z,28.13
2018-09-27T07:02:48.769Z,30.07
2018-09-27T07:03:26.578Z,28.70
2018-09-27T07:04:04.620Z,28.37
2018-09-27T07:04:42.832Z,27.10
2018-09-27T07:05:20.739Z,27.70
2018-09-27T07:05:58.667Z,27.47
2018-09-27T07:06:36.598Z,27.40
2018-09-27T07:07:14.465Z,26.87
2018-09-27T07:07:52.296Z,26.90
2018-09-27T07:08:30.263Z,28.07
2018-09-27T07:09:10.626Z,28.03
2018-09-27T07:09:48.705Z,30.27
2018-09-27T07:10:26.527Z,27.60
2018-09-27T07:11:05.241Z,26.53
2018-09-27T07:11:43.245Z,27.23
2018-09-27T07:12:21.490Z,27.53
2018-09-27T07:12:59.544Z,27.87
2018-09-27T07:13:37.651Z,28.10
2018-09-27T07:14:16.526Z,26.57
2018-09-27T07:14:54.543Z,27.60
2018-09-27T07:15:32.440Z,28.00
2018-09-27T07:16:10.392Z,29.00
2018-09-27T07:16:48.309Z,26.67
2018-09-27T07:17:26.287Z,27.00
2018-09-27T07:18:04.724Z,27.53
2018-09-27T07:18:42.801Z,26.73
2018-09-27T07:19:21.949Z,26.20
2018-09-27T07:19:59.878Z,26.43
2018-09-27T07:20:38.237Z,29.53
2018-09-27T07:21:16.319Z,27.93
2018-09-27T07:21:54.212Z,28.70
2018-09-27T07:22:32.185Z,28.23
2018-09-27T07:23:10.159Z,27.27
2018-09-27T07:23:47.886Z,25.67
2018-09-27T07:24:25.784Z,27.20
2018-09-27T07:25:03.745Z,27.07
2018-09-27T07:25:41.777Z,26.43
2018-09-27T07:26:19.797Z,28.60
2018-09-27T07:26:57.733Z,26.90
2018-09-27T07:27:35.941Z,26.97
2018-09-27T07:28:13.747Z,27.77
2018-09-27T07:28:51.654Z,29.67
2018-09-27T07:29:29.574Z,27.37
2018-09-27T07:30:07.415Z,28.17
2018-09-27T07:30:45.397Z,30.17
2018-09-27T07:31:23.239Z,30.27
2018-09-27T07:32:01.271Z,31.70
2018-09-27T07:32:39.112Z,31.77
2018-09-27T07:33:17.085Z,32.50
2018-09-27T07:33:54.888Z,29.50
2018-09-27T07:34:32.703Z,28.30
2018-09-27T07:35:10.770Z,27.00
2018-09-27T07:35:49.771Z,27.70
2018-09-27T07:36:28.075Z,29.80
2018-09-27T07:37:06.111Z,28.07
2018-09-27T07:37:44.143Z,26.87
2018-09-27T07:38:21.957Z,28.37
2018-09-27T07:39:00.509Z,27.87
2018-09-27T07:39:38.451Z,29.27
2018-09-27T07:40:16.501Z,29.43
2018-09-27T07:40:54.459Z,27.50
2018-09-27T07:41:32.355Z,28.90
2018-09-27T07:42:10.270Z,28.17
2018-09-27T07:42:48.296Z,27.17
2018-09-27T07:43:26.129Z,28.60
2018-09-27T07:44:03.937Z,27.93
2018-09-27T07:44:42.004Z,26.63
2018-09-27T07:45:19.991Z,27.43
2018-09-27T07:45:57.983Z,26.07
2018-09-27T07:46:35.820Z,27.87
2018-09-27T07:47:13.609Z,28.00
2018-09-27T07:47:52.534Z,26.47
2018-09-27T07:48:30.590Z,26.40
2018-09-27T07:49:08.537Z,27.10
2018-09-27T07:49:47.391Z,29.53
2018-09-27T07:50:25.356Z,29.00
2018-09-27T07:51:03.255Z,29.13
2018-09-27T07:51:41.184Z,28.23
2018-09-27T07:52:19.379Z,28.43
2018-09-27T07:52:57.174Z,29.67
2018-09-27T07:53:35.058Z,28.37
2018-09-27T07:54:14.162Z,27.90
2018-09-27T07:54:52.199Z,27.70
2018-09-27T07:55:30.255Z,28.23
2018-09-27T07:56:08.224Z,27.97
2018-09-27T07:56:46.221Z,28.07
2018-09-27T07:57:24.151Z,26.40
2018-09-27T07:58:02.010Z,26.93
2018-09-27T07:58:39.914Z,27.13
2018-09-27T07:59:18.973Z,27.20
2018-09-27T08:00:01.221Z,29.90
2018-09-27T08:00:39.383Z,27.20
2018-09-27T08:01:18.219Z,27.53
2018-09-27T08:01:56.147Z,26.70
2018-09-27T08:02:34.007Z,27.80
2018-09-27T08:03:12.047Z,27.43
2018-09-27T08:03:50.905Z,29.10
2018-09-27T08:04:28.888Z,29.57
2018-09-27T08:05:07.610Z,27.73
2018-09-27T08:05:46.381Z,29.07
2018-09-27T08:06:26.205Z,28.57
2018-09-27T08:07:04.122Z,28.77
2018-09-27T08:07:42.958Z,30.40
2018-09-27T08:08:20.950Z,31.37
2018-09-27T08:08:59.681Z,29.40
2018-09-27T08:09:37.497Z,30.50
2018-09-27T08:10:15.482Z,27.93
2018-09-27T08:10:53.471Z,30.13
2018-09-27T08:11:32.381Z,30.23
2018-09-27T08:12:11.530Z,28.57
2018-09-27T08:12:51.436Z,28.30
2018-09-27T08:13:30.354Z,28.87
2018-09-27T08:14:08.415Z,26.93
2018-09-27T08:14:49.239Z,29.97
2018-09-27T08:15:27.217Z,28.97
2018-09-27T08:16:08.888Z,28.20
2018-09-27T08:16:46.861Z,29.43
2018-09-27T08:17:24.842Z,29.10
2018-09-27T08:18:02.822Z,29.40
2018-09-27T08:18:40.796Z,30.70
2018-09-27T08:19:18.688Z,31.60
2018-09-27T08:19:56.582Z,28.53
2018-09-27T08:20:34.578Z,28.73
2018-09-27T08:21:13.735Z,28.13
2018-09-27T08:21:53.400Z,28.50